sensor_id;sensor_type;location;lat;lon;timestamp;pressure;altitude;pressure_sealevel;temperature;humidity
65190;BME280;51777;53.570;9.984;2023-04-28T00:01:14;101611.09;;;7.41;100.00
65190;BME280;51777;53.570;9.984;2023-04-28T00:03:39;101605.47;;;7.36;100.00
65190;BME280;51777;53.570;9.984;2023-04-28T00:06:05;101604.44;;;7.39;100.00
65190;BME280;51777;53.570;9.984;2023-04-28T00:08:30;101600.41;;;7.34;100.00
65190;BME280;51777;53.570;9.984;2023-04-28T00:10:56;101611.66;;;7.33;100.00
65190;BME280;51777;53.570;9.984;2023-04-28T00:13:22;101599.78;;;7.31;100.00
65190;BME280;51777;53.570;9.984;2023-04-28T00:15:51;101607.59;;;7.29;100.00
65190;BME280;51777;53.570;9.984;2023-04-28T00:18:17;101600.72;;;7.30;100.00
65190;BME280;51777;53.570;9.984;2023-04-28T00:20:43;101594.63;;;7.31;100.00
65190;BME280;51777;53.570;9.984;2023-04-28T00:23:08;101596.50;;;7.29;100.00
65190;BME280;51777;53.570;9.984;2023-04-28T00:25:34;101589.81;;;7.26;100.00
65190;BME280;51777;53.570;9.984;2023-04-28T00:27:59;101593.00;;;7.17;100.00
65190;BME280;51777;53.570;9.984;2023-04-28T00:30:26;101591.47;;;7.15;100.00
65190;BME280;51777;53.570;9.984;2023-04-28T00:32:51;101594.25;;;7.12;100.00
65190;BME280;51777;53.570;9.984;2023-04-28T00:35:17;101590.13;;;7.09;100.00
65190;BME280;51777;53.570;9.984;2023-04-28T00:37:43;101585.91;;;6.95;100.00
65190;BME280;51777;53.570;9.984;2023-04-28T00:40:08;101581.03;;;6.91;100.00
65190;BME280;51777;53.570;9.984;2023-04-28T00:42:39;101579.63;;;6.87;100.00
65190;BME280;51777;53.570;9.984;2023-04-28T00:45:05;101575.50;;;6.84;100.00
65190;BME280;51777;53.570;9.984;2023-04-28T00:47:32;101575.28;;;6.87;100.00
65190;BME280;51777;53.570;9.984;2023-04-28T00:49:59;101569.44;;;6.85;100.00
65190;BME280;51777;53.570;9.984;2023-04-28T00:52:26;101568.50;;;6.86;100.00
65190;BME280;51777;53.570;9.984;2023-04-28T00:54:52;101567.06;;;6.82;100.00
65190;BME280;51777;53.570;9.984;2023-04-28T00:57:18;101557.63;;;6.83;100.00
65190;BME280;51777;53.570;9.984;2023-04-28T00:59:43;101558.94;;;6.75;100.00
65190;BME280;51777;53.570;9.984;2023-04-28T01:02:09;101559.97;;;6.73;100.00
65190;BME280;51777;53.570;9.984;2023-04-28T01:04:42;101558.31;;;6.72;100.00
65190;BME280;51777;53.570;9.984;2023-04-28T01:07:07;101562.75;;;6.70;100.00
65190;BME280;51777;53.570;9.984;2023-04-28T01:09:33;101562.00;;;6.68;100.00
65190;BME280;51777;53.570;9.984;2023-04-28T01:11:58;101557.66;;;6.68;100.00
65190;BME280;51777;53.570;9.984;2023-04-28T01:14:24;101562.75;;;6.70;100.00
65190;BME280;51777;53.570;9.984;2023-04-28T01:16:51;101562.91;;;6.67;100.00
65190;BME280;51777;53.570;9.984;2023-04-28T01:19:21;101554.28;;;6.68;100.00
65190;BME280;51777;53.570;9.984;2023-04-28T01:21:48;101558.69;;;6.66;100.00
65190;BME280;51777;53.570;9.984;2023-04-28T01:24:14;101554.59;;;6.63;100.00
65190;BME280;51777;53.570;9.984;2023-04-28T01:26:39;101552.75;;;6.65;100.00
65190;BME280;51777;53.570;9.984;2023-04-28T01:29:05;101547.09;;;6.60;100.00
65190;BME280;51777;53.570;9.984;2023-04-28T01:31:30;101552.00;;;6.51;100.00
65190;BME280;51777;53.570;9.984;2023-04-28T01:33:56;101550.94;;;6.40;100.00
65190;BME280;51777;53.570;9.984;2023-04-28T01:36:21;101540.97;;;6.36;100.00
65190;BME280;51777;53.570;9.984;2023-04-28T01:38:48;101543.63;;;6.34;100.00
65190;BME280;51777;53.570;9.984;2023-04-28T01:41:14;101542.06;;;6.32;100.00
65190;BME280;51777;53.570;9.984;2023-04-28T01:43:39;101543.19;;;6.28;100.00
65190;BME280;51777;53.570;9.984;2023-04-28T01:46:04;101540.81;;;6.25;100.00
65190;BME280;51777;53.570;9.984;2023-04-28T01:48:30;101538.34;;;6.23;100.00
65190;BME280;51777;53.570;9.984;2023-04-28T01:50:56;101542.28;;;6.29;100.00
65190;BME280;51777;53.570;9.984;2023-04-28T01:53:22;101534.47;;;6.30;100.00
65190;BME280;51777;53.570;9.984;2023-04-28T01:55:47;101533.84;;;6.27;100.00
65190;BME280;51777;53.570;9.984;2023-04-28T01:58:12;101528.19;;;6.22;100.00
65190;BME280;51777;53.570;9.984;2023-04-28T02:00:38;101531.75;;;6.19;100.00
65190;BME280;51777;53.570;9.984;2023-04-28T02:03:03;101531.47;;;6.24;100.00
65190;BME280;51777;53.570;9.984;2023-04-28T02:05:29;101524.69;;;6.23;100.00
65190;BME280;51777;53.570;9.984;2023-04-28T02:07:54;101523.66;;;6.25;100.00
65190;BME280;51777;53.570;9.984;2023-04-28T02:10:20;101525.78;;;6.18;100.00
65190;BME280;51777;53.570;9.984;2023-04-28T02:12:45;101516.53;;;6.16;100.00
65190;BME280;51777;53.570;9.984;2023-04-28T02:15:11;101516.13;;;6.09;100.00
65190;BME280;51777;53.570;9.984;2023-04-28T02:17:36;101516.84;;;6.11;100.00
65190;BME280;51777;53.570;9.984;2023-04-28T02:20:02;101506.47;;;6.13;100.00
65190;BME280;51777;53.570;9.984;2023-04-28T02:22:27;101505.75;;;6.11;100.00
65190;BME280;51777;53.570;9.984;2023-04-28T02:24:52;101513.47;;;6.11;100.00
65190;BME280;51777;53.570;9.984;2023-04-28T02:27:18;101507.19;;;6.15;100.00
65190;BME280;51777;53.570;9.984;2023-04-28T02:29:43;101504.63;;;6.15;100.00
65190;BME280;51777;53.570;9.984;2023-04-28T02:32:09;101497.50;;;6.06;100.00
65190;BME280;51777;53.570;9.984;2023-04-28T02:34:34;101496.88;;;6.02;100.00
65190;BME280;51777;53.570;9.984;2023-04-28T02:37:00;101492.78;;;6.00;100.00
65190;BME280;51777;53.570;9.984;2023-04-28T02:39:25;101491.66;;;6.04;100.00
65190;BME280;51777;53.570;9.984;2023-04-28T02:41:52;101486.53;;;6.04;100.00
65190;BME280;51777;53.570;9.984;2023-04-28T02:44:18;101488.38;;;6.02;100.00
65190;BME280;51777;53.570;9.984;2023-04-28T02:46:44;101487.84;;;5.97;100.00
65190;BME280;51777;53.570;9.984;2023-04-28T02:49:09;101483.91;;;5.91;100.00
65190;BME280;51777;53.570;9.984;2023-04-28T02:51:35;101475.47;;;5.89;100.00
65190;BME280;51777;53.570;9.984;2023-04-28T02:54:00;101479.69;;;5.90;100.00
65190;BME280;51777;53.570;9.984;2023-04-28T02:56:25;101467.50;;;5.94;100.00
65190;BME280;51777;53.570;9.984;2023-04-28T02:58:51;101476.28;;;5.89;100.00
65190;BME280;51777;53.570;9.984;2023-04-28T03:01:17;101468.22;;;5.81;100.00
65190;BME280;51777;53.570;9.984;2023-04-28T03:03:42;101462.38;;;5.79;100.00
65190;BME280;51777;53.570;9.984;2023-04-28T03:06:07;101461.34;;;5.82;100.00
65190;BME280;51777;53.570;9.984;2023-04-28T03:08:33;101458.16;;;5.78;100.00
65190;BME280;51777;53.570;9.984;2023-04-28T03:10:58;101446.25;;;5.77;100.00
65190;BME280;51777;53.570;9.984;2023-04-28T03:13:24;101448.94;;;5.76;100.00
65190;BME280;51777;53.570;9.984;2023-04-28T03:15:50;101447.22;;;5.62;100.00
65190;BME280;51777;53.570;9.984;2023-04-28T03:18:16;101435.13;;;5.64;100.00
65190;BME280;51777;53.570;9.984;2023-04-28T03:20:43;101436.16;;;5.62;100.00
65190;BME280;51777;53.570;9.984;2023-04-28T03:23:08;101437.44;;;5.54;100.00
65190;BME280;51777;53.570;9.984;2023-04-28T03:25:33;101434.16;;;5.52;100.00
65190;BME280;51777;53.570;9.984;2023-04-28T03:27:59;101430.16;;;5.48;100.00
65190;BME280;51777;53.570;9.984;2023-04-28T03:30:24;101422.56;;;5.47;100.00
65190;BME280;51777;53.570;9.984;2023-04-28T03:32:49;101426.31;;;5.41;100.00
65190;BME280;51777;53.570;9.984;2023-04-28T03:35:15;101426.69;;;5.35;100.00
65190;BME280;51777;53.570;9.984;2023-04-28T03:37:40;101424.22;;;5.34;100.00
65190;BME280;51777;53.570;9.984;2023-04-28T03:40:06;101418.34;;;5.31;100.00
65190;BME280;51777;53.570;9.984;2023-04-28T03:42:32;101420.56;;;5.38;100.00
65190;BME280;51777;53.570;9.984;2023-04-28T03:44:57;101415.53;;;5.36;100.00
65190;BME280;51777;53.570;9.984;2023-04-28T03:47:23;101416.81;;;5.29;100.00
65190;BME280;51777;53.570;9.984;2023-04-28T03:49:48;101417.72;;;5.28;100.00
65190;BME280;51777;53.570;9.984;2023-04-28T03:52:14;101403.38;;;5.25;100.00
65190;BME280;51777;53.570;9.984;2023-04-28T03:54:40;101407.00;;;5.36;100.00
65190;BME280;51777;53.570;9.984;2023-04-28T03:57:05;101401.78;;;5.37;100.00
65190;BME280;51777;53.570;9.984;2023-04-28T03:59:31;101401.69;;;5.39;100.00
65190;BME280;51777;53.570;9.984;2023-04-28T04:01:57;101401.88;;;5.36;100.00
65190;BME280;51777;53.570;9.984;2023-04-28T04:04:22;101395.00;;;5.36;100.00
65190;BME280;51777;53.570;9.984;2023-04-28T04:06:48;101398.00;;;5.43;100.00
65190;BME280;51777;53.570;9.984;2023-04-28T04:09:13;101387.22;;;5.38;100.00
65190;BME280;51777;53.570;9.984;2023-04-28T04:11:39;101389.69;;;5.39;100.00
65190;BME280;51777;53.570;9.984;2023-04-28T04:14:04;101387.47;;;5.33;100.00
65190;BME280;51777;53.570;9.984;2023-04-28T04:16:30;101382.19;;;5.36;100.00
65190;BME280;51777;53.570;9.984;2023-04-28T04:18:56;101391.72;;;5.34;100.00
65190;BME280;51777;53.570;9.984;2023-04-28T04:21:21;101379.63;;;5.36;100.00
65190;BME280;51777;53.570;9.984;2023-04-28T04:23:47;101378.81;;;5.36;100.00
65190;BME280;51777;53.570;9.984;2023-04-28T04:26:12;101383.94;;;5.36;100.00
65190;BME280;51777;53.570;9.984;2023-04-28T04:28:38;101376.84;;;5.39;100.00
65190;BME280;51777;53.570;9.984;2023-04-28T04:31:03;101377.16;;;5.35;100.00
65190;BME280;51777;53.570;9.984;2023-04-28T04:33:28;101380.53;;;5.35;100.00
65190;BME280;51777;53.570;9.984;2023-04-28T04:35:54;101371.81;;;5.38;100.00
65190;BME280;51777;53.570;9.984;2023-04-28T04:38:19;101372.56;;;5.40;100.00
65190;BME280;51777;53.570;9.984;2023-04-28T04:40:45;101374.41;;;5.38;100.00
65190;BME280;51777;53.570;9.984;2023-04-28T04:43:10;101370.91;;;5.39;100.00
65190;BME280;51777;53.570;9.984;2023-04-28T04:45:35;101369.41;;;5.49;100.00
65190;BME280;51777;53.570;9.984;2023-04-28T04:48:01;101367.47;;;5.52;100.00
65190;BME280;51777;53.570;9.984;2023-04-28T04:50:27;101367.81;;;5.60;100.00
65190;BME280;51777;53.570;9.984;2023-04-28T04:52:52;101363.41;;;5.63;100.00
65190;BME280;51777;53.570;9.984;2023-04-28T04:55:20;101356.75;;;5.73;100.00
65190;BME280;51777;53.570;9.984;2023-04-28T04:57:46;101360.16;;;5.73;100.00
65190;BME280;51777;53.570;9.984;2023-04-28T05:00:12;101358.91;;;5.79;100.00
65190;BME280;51777;53.570;9.984;2023-04-28T05:02:38;101353.78;;;5.79;100.00
65190;BME280;51777;53.570;9.984;2023-04-28T05:05:04;101349.69;;;5.76;100.00
65190;BME280;51777;53.570;9.984;2023-04-28T05:07:30;101356.47;;;5.77;100.00
65190;BME280;51777;53.570;9.984;2023-04-28T05:09:55;101344.22;;;5.68;100.00
65190;BME280;51777;53.570;9.984;2023-04-28T05:12:21;101350.59;;;5.75;100.00
65190;BME280;51777;53.570;9.984;2023-04-28T05:14:46;101352.38;;;5.87;100.00
65190;BME280;51777;53.570;9.984;2023-04-28T05:17:12;101352.19;;;5.91;100.00
65190;BME280;51777;53.570;9.984;2023-04-28T05:19:37;101352.53;;;5.99;100.00
65190;BME280;51777;53.570;9.984;2023-04-28T05:22:03;101354.19;;;6.00;100.00
65190;BME280;51777;53.570;9.984;2023-04-28T05:24:28;101344.63;;;6.02;100.00
65190;BME280;51777;53.570;9.984;2023-04-28T05:26:59;101350.59;;;6.15;100.00
65190;BME280;51777;53.570;9.984;2023-04-28T05:29:25;101343.00;;;6.26;100.00
65190;BME280;51777;53.570;9.984;2023-04-28T05:31:51;101339.50;;;6.27;100.00
65190;BME280;51777;53.570;9.984;2023-04-28T05:34:16;101338.19;;;6.34;100.00
65190;BME280;51777;53.570;9.984;2023-04-28T05:36:43;101342.78;;;6.42;100.00
65190;BME280;51777;53.570;9.984;2023-04-28T05:39:08;101334.56;;;6.50;100.00
65190;BME280;51777;53.570;9.984;2023-04-28T05:41:34;101338.25;;;6.71;100.00
65190;BME280;51777;53.570;9.984;2023-04-28T05:44:02;101339.03;;;6.84;100.00
65190;BME280;51777;53.570;9.984;2023-04-28T05:46:28;101336.28;;;6.74;100.00
65190;BME280;51777;53.570;9.984;2023-04-28T05:48:53;101336.28;;;6.74;100.00
65190;BME280;51777;53.570;9.984;2023-04-28T05:51:19;101333.78;;;6.86;100.00
65190;BME280;51777;53.570;9.984;2023-04-28T05:53:44;101326.56;;;6.91;100.00
65190;BME280;51777;53.570;9.984;2023-04-28T05:56:13;101331.19;;;6.98;100.00
65190;BME280;51777;53.570;9.984;2023-04-28T05:58:39;101324.75;;;7.04;100.00
65190;BME280;51777;53.570;9.984;2023-04-28T06:01:06;101313.91;;;7.24;100.00
65190;BME280;51777;53.570;9.984;2023-04-28T06:03:31;101326.09;;;7.33;100.00
65190;BME280;51777;53.570;9.984;2023-04-28T06:05:56;101317.66;;;7.31;100.00
65190;BME280;51777;53.570;9.984;2023-04-28T06:08:22;101312.13;;;7.49;100.00
65190;BME280;51777;53.570;9.984;2023-04-28T06:10:47;101315.94;;;7.43;100.00
65190;BME280;51777;53.570;9.984;2023-04-28T06:13:13;101312.16;;;7.60;100.00
65190;BME280;51777;53.570;9.984;2023-04-28T06:15:38;101314.41;;;7.64;100.00
65190;BME280;51777;53.570;9.984;2023-04-28T06:18:03;101314.91;;;7.70;100.00
65190;BME280;51777;53.570;9.984;2023-04-28T06:20:31;101317.38;;;7.82;100.00
65190;BME280;51777;53.570;9.984;2023-04-28T06:22:56;101307.69;;;7.97;100.00
65190;BME280;51777;53.570;9.984;2023-04-28T06:25:22;101313.91;;;8.06;100.00
65190;BME280;51777;53.570;9.984;2023-04-28T06:27:47;101313.19;;;8.04;100.00
65190;BME280;51777;53.570;9.984;2023-04-28T06:30:22;101307.94;;;8.16;100.00
65190;BME280;51777;53.570;9.984;2023-04-28T06:32:48;101318.38;;;8.26;100.00
65190;BME280;51777;53.570;9.984;2023-04-28T06:35:15;101307.06;;;8.40;100.00
65190;BME280;51777;53.570;9.984;2023-04-28T06:37:41;101312.91;;;8.53;100.00
65190;BME280;51777;53.570;9.984;2023-04-28T06:40:07;101311.50;;;8.60;100.00
65190;BME280;51777;53.570;9.984;2023-04-28T06:42:33;101312.06;;;8.86;100.00
65190;BME280;51777;53.570;9.984;2023-04-28T06:44:58;101295.75;;;8.97;100.00
65190;BME280;51777;53.570;9.984;2023-04-28T06:47:24;101295.13;;;9.04;100.00
65190;BME280;51777;53.570;9.984;2023-04-28T06:49:49;101304.25;;;9.08;100.00
65190;BME280;51777;53.570;9.984;2023-04-28T06:52:15;101296.81;;;9.26;100.00
65190;BME280;51777;53.570;9.984;2023-04-28T06:54:41;101300.28;;;9.36;100.00
65190;BME280;51777;53.570;9.984;2023-04-28T06:57:06;101296.78;;;9.58;100.00
65190;BME280;51777;53.570;9.984;2023-04-28T06:59:32;101294.91;;;9.60;100.00
65190;BME280;51777;53.570;9.984;2023-04-28T07:01:57;101296.41;;;9.84;100.00
65190;BME280;51777;53.570;9.984;2023-04-28T07:04:23;101295.06;;;9.89;100.00
65190;BME280;51777;53.570;9.984;2023-04-28T07:06:48;101296.81;;;10.10;100.00
65190;BME280;51777;53.570;9.984;2023-04-28T07:09:14;101303.22;;;10.36;100.00
65190;BME280;51777;53.570;9.984;2023-04-28T07:11:40;101294.69;;;10.45;100.00
65190;BME280;51777;53.570;9.984;2023-04-28T07:14:06;101306.63;;;10.37;100.00
65190;BME280;51777;53.570;9.984;2023-04-28T07:16:32;101295.69;;;10.23;100.00
65190;BME280;51777;53.570;9.984;2023-04-28T07:18:58;101296.00;;;10.30;100.00
65190;BME280;51777;53.570;9.984;2023-04-28T07:21:23;101297.56;;;10.52;100.00
65190;BME280;51777;53.570;9.984;2023-04-28T07:23:49;101284.94;;;10.58;100.00
65190;BME280;51777;53.570;9.984;2023-04-28T07:26:14;101289.06;;;10.71;100.00
65190;BME280;51777;53.570;9.984;2023-04-28T07:28:43;101280.63;;;10.88;100.00
65190;BME280;51777;53.570;9.984;2023-04-28T07:31:08;101283.41;;;11.06;100.00
65190;BME280;51777;53.570;9.984;2023-04-28T07:33:33;101275.91;;;11.32;100.00
65190;BME280;51777;53.570;9.984;2023-04-28T07:35:59;101273.84;;;11.35;100.00
65190;BME280;51777;53.570;9.984;2023-04-28T07:38:25;101277.94;;;11.38;100.00
65190;BME280;51777;53.570;9.984;2023-04-28T07:40:50;101279.97;;;11.44;100.00
65190;BME280;51777;53.570;9.984;2023-04-28T07:43:16;101281.56;;;11.64;100.00
65190;BME280;51777;53.570;9.984;2023-04-28T07:45:41;101278.97;;;11.64;100.00
65190;BME280;51777;53.570;9.984;2023-04-28T07:48:09;101280.59;;;11.75;100.00
65190;BME280;51777;53.570;9.984;2023-04-28T07:50:35;101277.50;;;11.81;100.00
65190;BME280;51777;53.570;9.984;2023-04-28T07:53:00;101275.78;;;12.09;100.00
65190;BME280;51777;53.570;9.984;2023-04-28T07:55:25;101278.53;;;11.98;100.00
65190;BME280;51777;53.570;9.984;2023-04-28T07:57:51;101273.28;;;12.17;100.00
65190;BME280;51777;53.570;9.984;2023-04-28T08:00:16;101277.09;;;12.23;100.00
65190;BME280;51777;53.570;9.984;2023-04-28T08:02:43;101284.16;;;12.58;100.00
65190;BME280;51777;53.570;9.984;2023-04-28T08:05:08;101278.31;;;13.19;100.00
65190;BME280;51777;53.570;9.984;2023-04-28T08:07:35;101271.28;;;13.55;100.00
65190;BME280;51777;53.570;9.984;2023-04-28T08:10:02;101277.88;;;13.93;100.00
65190;BME280;51777;53.570;9.984;2023-04-28T08:12:27;101262.84;;;14.13;100.00
65190;BME280;51777;53.570;9.984;2023-04-28T08:14:53;101267.66;;;14.34;100.00
65190;BME280;51777;53.570;9.984;2023-04-28T08:17:18;101267.03;;;14.40;100.00
65190;BME280;51777;53.570;9.984;2023-04-28T08:19:44;101265.00;;;14.52;100.00
65190;BME280;51777;53.570;9.984;2023-04-28T08:22:11;101261.66;;;14.92;100.00
65190;BME280;51777;53.570;9.984;2023-04-28T08:24:36;101268.50;;;15.42;100.00
65190;BME280;51777;53.570;9.984;2023-04-28T08:27:02;101267.53;;;15.67;100.00
65190;BME280;51777;53.570;9.984;2023-04-28T08:29:29;101263.78;;;16.25;100.00
65190;BME280;51777;53.570;9.984;2023-04-28T08:31:55;101274.28;;;16.79;100.00
65190;BME280;51777;53.570;9.984;2023-04-28T08:34:20;101263.19;;;16.07;100.00
65190;BME280;51777;53.570;9.984;2023-04-28T08:36:45;101261.09;;;15.94;100.00
65190;BME280;51777;53.570;9.984;2023-04-28T08:39:11;101266.50;;;16.32;100.00
65190;BME280;51777;53.570;9.984;2023-04-28T08:41:40;101268.75;;;16.04;100.00
65190;BME280;51777;53.570;9.984;2023-04-28T08:44:07;101254.72;;;15.97;100.00
65190;BME280;51777;53.570;9.984;2023-04-28T08:46:33;101257.09;;;15.43;100.00
65190;BME280;51777;53.570;9.984;2023-04-28T08:49:00;101260.69;;;15.66;100.00
65190;BME280;51777;53.570;9.984;2023-04-28T08:51:38;101260.44;;;16.00;100.00
65190;BME280;51777;53.570;9.984;2023-04-28T08:54:08;101252.25;;;16.51;100.00
65190;BME280;51777;53.570;9.984;2023-04-28T08:56:36;101256.88;;;16.94;100.00
65190;BME280;51777;53.570;9.984;2023-04-28T08:59:03;101250.72;;;17.10;100.00
65190;BME280;51777;53.570;9.984;2023-04-28T09:01:32;101247.44;;;17.31;99.91
65190;BME280;51777;53.570;9.984;2023-04-28T09:04:00;101247.06;;;17.34;100.00
65190;BME280;51777;53.570;9.984;2023-04-28T09:06:33;101244.41;;;16.51;100.00
65190;BME280;51777;53.570;9.984;2023-04-28T09:09:21;101238.63;;;16.32;100.00
65190;BME280;51777;53.570;9.984;2023-04-28T09:11:55;101225.66;;;16.16;100.00
65190;BME280;51777;53.570;9.984;2023-04-28T09:14:23;101229.53;;;15.81;100.00
65190;BME280;51777;53.570;9.984;2023-04-28T09:16:49;101231.94;;;15.91;100.00
65190;BME280;51777;53.570;9.984;2023-04-28T09:19:18;101215.31;;;15.92;100.00
65190;BME280;51777;53.570;9.984;2023-04-28T09:21:55;101217.34;;;15.65;100.00
65190;BME280;51777;53.570;9.984;2023-04-28T09:24:37;101223.56;;;15.64;100.00
65190;BME280;51777;53.570;9.984;2023-04-28T09:27:08;101207.94;;;15.32;100.00
65190;BME280;51777;53.570;9.984;2023-04-28T09:29:51;101218.31;;;15.56;100.00
65190;BME280;51777;53.570;9.984;2023-04-28T09:32:22;101211.63;;;15.62;100.00
65190;BME280;51777;53.570;9.984;2023-04-28T09:34:51;101209.25;;;16.38;100.00
65190;BME280;51777;53.570;9.984;2023-04-28T09:37:22;101210.88;;;17.08;100.00
65190;BME280;51777;53.570;9.984;2023-04-28T09:39:50;101216.69;;;17.18;100.00
65190;BME280;51777;53.570;9.984;2023-04-28T09:42:38;101213.50;;;16.31;100.00
65190;BME280;51777;53.570;9.984;2023-04-28T09:45:06;101206.69;;;15.91;100.00
65190;BME280;51777;53.570;9.984;2023-04-28T09:47:34;101209.13;;;15.93;100.00
65190;BME280;51777;53.570;9.984;2023-04-28T09:50:05;101211.66;;;16.40;100.00
65190;BME280;51777;53.570;9.984;2023-04-28T09:52:34;101202.78;;;16.49;100.00
65190;BME280;51777;53.570;9.984;2023-04-28T09:55:05;101200.47;;;16.54;100.00
65190;BME280;51777;53.570;9.984;2023-04-28T09:57:34;101200.41;;;16.39;100.00
65190;BME280;51777;53.570;9.984;2023-04-28T10:00:00;101192.28;;;15.64;100.00
65190;BME280;51777;53.570;9.984;2023-04-28T10:02:26;101189.53;;;15.97;100.00
65190;BME280;51777;53.570;9.984;2023-04-28T10:04:52;101184.13;;;15.98;100.00
65190;BME280;51777;53.570;9.984;2023-04-28T10:07:19;101178.94;;;16.29;100.00
65190;BME280;51777;53.570;9.984;2023-04-28T10:09:49;101187.41;;;16.31;100.00
65190;BME280;51777;53.570;9.984;2023-04-28T10:12:19;101174.31;;;16.39;100.00
65190;BME280;51777;53.570;9.984;2023-04-28T10:14:47;101174.25;;;16.25;100.00
65190;BME280;51777;53.570;9.984;2023-04-28T10:17:19;101168.59;;;15.74;100.00
65190;BME280;51777;53.570;9.984;2023-04-28T10:19:47;101166.16;;;15.72;100.00
65190;BME280;51777;53.570;9.984;2023-04-28T10:25:27;101157.72;;;15.62;100.00
65190;BME280;51777;53.570;9.984;2023-04-28T10:27:55;101152.84;;;15.51;100.00
65190;BME280;51777;53.570;9.984;2023-04-28T10:30:23;101147.19;;;15.39;100.00
65190;BME280;51777;53.570;9.984;2023-04-28T10:38:10;101134.56;;;15.75;100.00
65190;BME280;51777;53.570;9.984;2023-04-28T10:40:44;101131.03;;;15.36;100.00
65190;BME280;51777;53.570;9.984;2023-04-28T10:43:31;101126.47;;;15.46;100.00
65190;BME280;51777;53.570;9.984;2023-04-28T10:56:21;101133.47;;;16.47;100.00
65190;BME280;51777;53.570;9.984;2023-04-28T10:59:27;101123.25;;;16.37;100.00
65190;BME280;51777;53.570;9.984;2023-04-28T11:01:54;101134.88;;;16.57;100.00
65190;BME280;51777;53.570;9.984;2023-04-28T11:04:19;101122.88;;;16.25;100.00
65190;BME280;51777;53.570;9.984;2023-04-28T11:06:45;101133.94;;;16.27;100.00
65190;BME280;51777;53.570;9.984;2023-04-28T11:11:37;101124.78;;;16.77;100.00
65190;BME280;51777;53.570;9.984;2023-04-28T11:19:50;101115.25;;;15.84;100.00
65190;BME280;51777;53.570;9.984;2023-04-28T11:22:17;101112.16;;;16.12;100.00
65190;BME280;51777;53.570;9.984;2023-04-28T11:25:02;101114.69;;;16.51;100.00
65190;BME280;51777;53.570;9.984;2023-04-28T11:27:30;101110.97;;;16.68;100.00
65190;BME280;51777;53.570;9.984;2023-04-28T11:29:56;101103.84;;;17.00;100.00
65190;BME280;51777;53.570;9.984;2023-04-28T11:32:30;101101.91;;;16.79;100.00
65190;BME280;51777;53.570;9.984;2023-04-28T11:34:56;101098.88;;;16.90;100.00
65190;BME280;51777;53.570;9.984;2023-04-28T11:37:21;101100.00;;;16.73;100.00
65190;BME280;51777;53.570;9.984;2023-04-28T11:39:47;101096.69;;;16.79;100.00
65190;BME280;51777;53.570;9.984;2023-04-28T11:42:13;101096.34;;;16.82;100.00
65190;BME280;51777;53.570;9.984;2023-04-28T11:44:38;101095.25;;;16.54;100.00
65190;BME280;51777;53.570;9.984;2023-04-28T11:47:05;101089.72;;;16.49;100.00
65190;BME280;51777;53.570;9.984;2023-04-28T11:52:04;101085.69;;;16.00;100.00
65190;BME280;51777;53.570;9.984;2023-04-28T11:54:30;101081.34;;;16.15;100.00
65190;BME280;51777;53.570;9.984;2023-04-28T11:56:57;101083.38;;;16.05;100.00
65190;BME280;51777;53.570;9.984;2023-04-28T11:59:27;101079.66;;;16.23;100.00
65190;BME280;51777;53.570;9.984;2023-04-28T12:01:57;101077.44;;;16.34;100.00
65190;BME280;51777;53.570;9.984;2023-04-28T12:04:30;101082.88;;;16.48;100.00
65190;BME280;51777;53.570;9.984;2023-04-28T12:09:32;101080.34;;;15.94;100.00
65190;BME280;51777;53.570;9.984;2023-04-28T12:12:02;101072.25;;;15.80;100.00
65190;BME280;51777;53.570;9.984;2023-04-28T12:14:29;101065.97;;;15.67;100.00
65190;BME280;51777;53.570;9.984;2023-04-28T12:16:57;101066.28;;;15.72;100.00
65190;BME280;51777;53.570;9.984;2023-04-28T12:19:23;101064.00;;;15.69;100.00
65190;BME280;51777;53.570;9.984;2023-04-28T12:22:17;101052.22;;;15.42;100.00
65190;BME280;51777;53.570;9.984;2023-04-28T12:24:43;101048.63;;;15.43;100.00
65190;BME280;51777;53.570;9.984;2023-04-28T12:27:14;101048.41;;;15.13;100.00
65190;BME280;51777;53.570;9.984;2023-04-28T12:29:41;101045.19;;;15.03;100.00
65190;BME280;51777;53.570;9.984;2023-04-28T12:32:09;101039.75;;;15.13;100.00
65190;BME280;51777;53.570;9.984;2023-04-28T12:34:36;101038.63;;;15.15;100.00
65190;BME280;51777;53.570;9.984;2023-04-28T12:37:02;101030.50;;;15.10;100.00
65190;BME280;51777;53.570;9.984;2023-04-28T12:39:33;101027.13;;;15.02;100.00
65190;BME280;51777;53.570;9.984;2023-04-28T12:41:59;101022.56;;;15.04;100.00
65190;BME280;51777;53.570;9.984;2023-04-28T12:44:26;101016.03;;;15.08;100.00
65190;BME280;51777;53.570;9.984;2023-04-28T12:46:53;101015.91;;;14.93;100.00
65190;BME280;51777;53.570;9.984;2023-04-28T12:49:20;101011.69;;;14.92;100.00
65190;BME280;51777;53.570;9.984;2023-04-28T12:51:45;101018.84;;;14.90;100.00
65190;BME280;51777;53.570;9.984;2023-04-28T12:54:11;101018.34;;;14.94;100.00
65190;BME280;51777;53.570;9.984;2023-04-28T12:56:36;101017.88;;;14.83;100.00
65190;BME280;51777;53.570;9.984;2023-04-28T12:59:02;101014.31;;;14.84;100.00
65190;BME280;51777;53.570;9.984;2023-04-28T13:01:28;101010.88;;;14.91;100.00
65190;BME280;51777;53.570;9.984;2023-04-28T13:03:54;101009.72;;;14.94;100.00
65190;BME280;51777;53.570;9.984;2023-04-28T13:06:19;101003.38;;;14.96;100.00
65190;BME280;51777;53.570;9.984;2023-04-28T13:11:22;101009.78;;;14.69;100.00
65190;BME280;51777;53.570;9.984;2023-04-28T13:13:51;100997.91;;;14.67;100.00
65190;BME280;51777;53.570;9.984;2023-04-28T13:16:17;100994.84;;;14.63;100.00
65190;BME280;51777;53.570;9.984;2023-04-28T13:18:43;100997.59;;;14.62;100.00